Time;durP1;ratioP1;P1;durP2;ratioP2;P2;SDS_P1;SDS_P2;PMS_P1;PMS_P2;Temp;Humidity;BMP_temperature;BMP_pressure;BME280_temperature;BME280_humidity;BME280_pressure;Samples;Min_cycle;Max_cycle;Signal;HPM_P1;HPM_P2
2024/03/17 00:02:18;;;;;;;0.30;0.30;;;12.40;99.90;;;;;;5085758;28;20168;-78
2024/03/17 00:04:47;;;;;;;0.30;0.20;;;12.40;99.90;;;;;;5085256;28;20705;-78
2024/03/17 00:07:13;;;;;;;0.67;0.67;;;12.50;99.90;;;;;;5083812;28;20725;-75
2024/03/17 00:09:39;;;;;;;0.30;0.20;;;12.50;99.90;;;;;;5086146;28;20801;-75
2024/03/17 00:12:06;;;;;;;0.30;0.20;;;12.60;99.90;;;;;;5085691;28;20405;-74
2024/03/17 00:14:31;;;;;;;0.30;0.20;;;12.60;99.90;;;;;;5086264;28;20421;-79
2024/03/17 00:16:57;;;;;;;0.30;0.20;;;12.60;99.90;;;;;;5085577;28;20449;-78
2024/03/17 00:19:26;;;;;;;1.23;1.23;;;12.70;99.90;;;;;;5086014;28;20196;-79
2024/03/17 00:21:52;;;;;;;0.40;0.40;;;12.70;99.90;;;;;;5086270;28;20482;-75
2024/03/17 00:24:18;;;;;;;0.83;0.83;;;12.80;99.90;;;;;;5084706;28;20726;-75
2024/03/17 00:26:44;;;;;;;0.30;0.20;;;12.80;99.90;;;;;;5084548;28;20576;-79
2024/03/17 00:29:10;;;;;;;0.30;0.20;;;12.80;99.90;;;;;;5086087;28;20471;-79
2024/03/17 00:31:37;;;;;;;0.30;0.20;;;12.90;99.90;;;;;;5086110;28;20833;-78
2024/03/17 00:34:03;;;;;;;0.30;0.20;;;12.90;99.90;;;;;;5085955;28;20378;-78
2024/03/17 00:36:30;;;;;;;0.40;0.40;;;12.90;99.90;;;;;;5084067;28;20436;-78
2024/03/17 00:38:56;;;;;;;2.77;2.67;;;13.00;99.90;;;;;;5083613;28;20956;-74
2024/03/17 00:41:23;;;;;;;0.30;0.20;;;13.00;99.90;;;;;;5085330;28;20511;-75
2024/03/17 00:43:50;;;;;;;0.30;0.27;;;13.00;99.90;;;;;;5084353;28;20451;-79
2024/03/17 00:46:15;;;;;;;0.30;0.20;;;13.00;99.90;;;;;;5084076;28;20436;-75
2024/03/17 00:48:41;;;;;;;0.47;0.47;;;13.10;99.90;;;;;;5084243;28;20995;-75
2024/03/17 00:51:07;;;;;;;0.30;0.20;;;13.00;99.90;;;;;;5083876;28;20180;-75
2024/03/17 00:53:33;;;;;;;0.30;0.20;;;13.10;99.90;;;;;;5084178;28;20276;-78
2024/03/17 00:55:59;;;;;;;0.30;0.20;;;13.10;99.90;;;;;;5085570;28;20267;-79
2024/03/17 00:58:25;;;;;;;0.30;0.20;;;13.10;99.90;;;;;;5083801;28;20200;-74
2024/03/17 01:00:51;;;;;;;1.17;1.07;;;13.10;99.90;;;;;;5084424;28;20429;-78
2024/03/17 01:03:17;;;;;;;0.60;0.60;;;13.10;99.90;;;;;;5085717;28;20193;-78
2024/03/17 01:05:44;;;;;;;0.30;0.20;;;13.10;99.90;;;;;;5085565;28;20412;-79
2024/03/17 01:08:17;;;;;;;0.30;0.20;;;13.10;99.90;;;;;;5083816;28;20429;-74
2024/03/17 01:10:45;;;;;;;1.57;1.47;;;13.10;99.90;;;;;;5083968;28;20549;-74
2024/03/17 01:13:11;;;;;;;0.30;0.20;;;13.10;99.90;;;;;;5083937;28;20429;-75
2024/03/17 01:15:38;;;;;;;1.33;1.23;;;13.10;99.90;;;;;;5085496;28;20447;-75
2024/03/17 01:18:07;;;;;;;4.13;3.93;;;13.10;99.90;;;;;;5084913;28;20484;-78
2024/03/17 01:20:37;;;;;;;0.30;0.20;;;13.10;99.90;;;;;;5087336;28;20433;-74
2024/03/17 01:23:03;;;;;;;0.30;0.20;;;13.10;99.90;;;;;;5089361;28;21091;-75
2024/03/17 01:25:30;;;;;;;0.30;0.20;;;13.10;99.90;;;;;;5089316;28;20944;-74
2024/03/17 01:27:56;;;;;;;0.30;0.20;;;13.10;99.90;;;;;;5089187;28;20459;-78
2024/03/17 01:30:22;;;;;;;0.30;0.20;;;13.10;99.90;;;;;;5087709;28;20476;-75
2024/03/17 01:32:48;;;;;;;0.30;0.20;;;13.10;99.90;;;;;;5089081;28;20424;-75
2024/03/17 01:35:15;;;;;;;0.30;0.27;;;13.10;99.90;;;;;;5089131;28;20428;-75
2024/03/17 01:37:40;;;;;;;1.90;1.80;;;13.10;99.90;;;;;;5088679;28;20440;-78
2024/03/17 01:40:10;;;;;;;0.30;0.20;;;13.10;99.90;;;;;;5088236;28;20451;-75
2024/03/17 01:42:40;;;;;;;0.30;0.20;;;13.10;99.90;;;;;;5087099;28;20245;-75
2024/03/17 01:45:25;;;;;;;0.70;0.60;;;13.00;99.90;;;;;;5087816;28;20965;-75
2024/03/17 01:47:51;;;;;;;4.40;4.03;;;13.00;99.90;;;;;;5089137;28;20428;-75
2024/03/17 01:50:20;;;;;;;0.30;0.30;;;13.00;99.90;;;;;;5087323;28;20508;-75
2024/03/17 01:52:47;;;;;;;1.77;1.20;;;13.00;99.90;;;;;;5088340;28;20496;-79
2024/03/17 01:55:14;;;;;;;0.30;0.30;;;13.00;99.90;;;;;;5088669;28;20443;-75
2024/03/17 01:57:40;;;;;;;0.40;0.37;;;13.00;99.90;;;;;;5088240;28;20473;-78
2024/03/17 02:00:08;;;;;;;0.30;0.20;;;13.00;99.90;;;;;;5088604;28;20409;-78
2024/03/17 02:02:35;;;;;;;0.30;0.30;;;12.90;99.90;;;;;;5088425;28;20431;-78
2024/03/17 02:05:02;;;;;;;0.30;0.20;;;12.90;99.90;;;;;;5088503;28;20447;-78
2024/03/17 02:07:28;;;;;;;1.90;1.80;;;12.90;99.90;;;;;;5088126;28;20456;-79
2024/03/17 02:09:55;;;;;;;0.30;0.20;;;12.90;99.90;;;;;;5087034;28;20472;-75
2024/03/17 02:12:21;;;;;;;0.60;0.60;;;12.90;99.90;;;;;;5086724;28;20945;-78
2024/03/17 02:14:47;;;;;;;0.90;0.90;;;12.90;99.90;;;;;;5088456;28;20457;-78
2024/03/17 02:17:13;;;;;;;0.30;0.20;;;12.80;99.90;;;;;;5088225;28;20566;-78
2024/03/17 02:19:39;;;;;;;2.40;1.23;;;12.80;99.90;;;;;;5088250;28;20335;-75
2024/03/17 02:22:13;;;;;;;0.30;0.30;;;12.80;99.90;;;;;;5088423;28;20890;-79
2024/03/17 02:24:38;;;;;;;0.30;0.20;;;12.80;99.90;;;;;;5087134;28;20206;-75
2024/03/17 02:27:04;;;;;;;0.30;0.23;;;12.80;99.90;;;;;;5087979;28;20401;-75
2024/03/17 02:29:30;;;;;;;0.30;0.20;;;12.80;99.90;;;;;;5087359;28;20218;-74
2024/03/17 02:31:56;;;;;;;0.77;0.77;;;12.80;99.90;;;;;;5086624;28;20432;-78
2024/03/17 02:34:21;;;;;;;1.13;1.03;;;12.80;99.90;;;;;;5088059;28;20203;-78
2024/03/17 02:36:47;;;;;;;0.47;0.47;;;12.80;99.90;;;;;;5088188;28;20645;-75
2024/03/17 02:39:34;;;;;;;0.30;0.20;;;12.80;99.90;;;;;;5087744;28;20677;-75
2024/03/17 02:42:10;;;;;;;0.30;0.20;;;12.80;99.90;;;;;;5086483;28;20189;-79
2024/03/17 02:44:37;;;;;;;0.30;0.20;;;12.80;99.90;;;;;;5085801;28;20429;-75
2024/03/17 02:47:05;;;;;;;0.30;0.20;;;12.80;99.90;;;;;;5087959;28;20709;-74
2024/03/17 02:49:39;;;;;;;0.30;0.20;;;12.80;99.90;;;;;;5086136;28;20908;-75
2024/03/17 02:52:06;;;;;;;0.53;0.53;;;12.80;99.90;;;;;;5087461;28;20387;-75
2024/03/17 02:54:32;;;;;;;0.47;0.47;;;12.80;99.90;;;;;;5087634;28;20405;-74
2024/03/17 02:56:58;;;;;;;0.30;0.20;;;12.80;99.90;;;;;;5086119;28;20819;-79
2024/03/17 02:59:24;;;;;;;0.30;0.20;;;12.80;99.90;;;;;;5087357;28;20494;-78
2024/03/17 03:01:51;;;;;;;1.13;1.03;;;12.80;99.90;;;;;;5085793;28;20428;-79
2024/03/17 03:04:16;;;;;;;0.30;0.30;;;12.80;99.90;;;;;;5085972;28;20264;-75
2024/03/17 03:06:43;;;;;;;0.30;0.30;;;12.80;99.90;;;;;;5087441;28;20496;-75
2024/03/17 03:09:13;;;;;;;0.30;0.20;;;12.80;99.90;;;;;;5085889;28;20595;-76
2024/03/17 03:11:40;;;;;;;0.30;0.20;;;12.80;99.90;;;;;;5085312;28;20726;-75
2024/03/17 03:14:06;;;;;;;0.30;0.20;;;12.80;99.90;;;;;;5085842;28;20480;-76
2024/03/17 03:16:33;;;;;;;0.77;0.77;;;12.90;99.90;;;;;;5087363;28;20421;-80
2024/03/17 03:18:59;;;;;;;0.30;0.20;;;12.80;99.90;;;;;;5085747;28;20989;-79
2024/03/17 03:21:25;;;;;;;0.30;0.20;;;12.80;99.90;;;;;;5085662;28;20437;-79
2024/03/17 03:23:51;;;;;;;0.30;0.20;;;12.80;99.90;;;;;;5085483;28;20433;-80
2024/03/17 03:26:17;;;;;;;0.30;0.20;;;12.80;99.90;;;;;;5086983;28;20489;-75
2024/03/17 03:28:44;;;;;;;0.30;0.20;;;12.80;99.90;;;;;;5086893;28;20416;-79
2024/03/17 03:31:13;;;;;;;0.30;0.20;;;12.80;99.90;;;;;;5085562;28;20425;-76
2024/03/17 03:33:42;;;;;;;0.73;0.73;;;12.80;99.90;;;;;;5086496;28;20706;-80
2024/03/17 03:36:13;;;;;;;0.30;0.20;;;12.80;99.90;;;;;;5086866;28;20470;-76
2024/03/17 03:38:38;;;;;;;0.30;0.20;;;12.80;99.90;;;;;;5086403;28;20417;-76
2024/03/17 03:41:13;;;;;;;0.30;0.20;;;12.80;99.90;;;;;;5084902;28;20432;-76
2024/03/17 03:43:39;;;;;;;0.30;0.20;;;12.80;99.90;;;;;;5085019;28;20399;-76
2024/03/17 03:46:05;;;;;;;0.30;0.20;;;12.70;99.90;;;;;;5085805;28;20555;-80
2024/03/17 03:48:32;;;;;;;0.30;0.20;;;12.70;99.90;;;;;;5085523;28;20297;-75
2024/03/17 03:50:58;;;;;;;0.30;0.20;;;12.80;99.90;;;;;;5085025;28;20578;-79
2024/03/17 03:53:24;;;;;;;0.40;0.40;;;12.70;99.90;;;;;;5085095;28;20437;-80
2024/03/17 03:55:50;;;;;;;0.30;0.30;;;12.70;99.90;;;;;;5086094;28;20440;-76
2024/03/17 03:58:15;;;;;;;0.30;0.20;;;12.80;99.90;;;;;;5086750;28;20200;-79
2024/03/17 04:00:41;;;;;;;0.30;0.20;;;12.80;99.90;;;;;;5086471;28;20646;-79
2024/03/17 04:03:07;;;;;;;0.30;0.20;;;12.80;99.90;;;;;;5084679;28;20279;-79
2024/03/17 04:05:34;;;;;;;0.30;0.20;;;12.80;99.90;;;;;;5084991;28;21079;-80
2024/03/17 04:08:00;;;;;;;0.30;0.20;;;12.80;99.90;;;;;;5085903;28;20704;-75
2024/03/17 04:10:26;;;;;;;0.30;0.20;;;12.80;99.90;;;;;;5084753;28;20535;-76
2024/03/17 04:12:52;;;;;;;0.30;0.20;;;12.80;99.90;;;;;;5085924;28;20460;-80
2024/03/17 04:15:19;;;;;;;0.30;0.20;;;12.80;99.90;;;;;;5086348;28;20201;-80
2024/03/17 04:17:45;;;;;;;0.30;0.20;;;12.70;99.90;;;;;;5085546;28;20503;-80
2024/03/17 04:20:13;;;;;;;0.40;0.37;;;12.70;99.90;;;;;;5084623;28;20501;-76
2024/03/17 04:22:40;;;;;;;0.30;0.20;;;12.70;99.90;;;;;;5085707;28;20490;-80
2024/03/17 04:25:06;;;;;;;0.30;0.20;;;12.70;99.90;;;;;;5086200;28;20876;-75
2024/03/17 04:27:32;;;;;;;0.30;0.20;;;12.70;99.90;;;;;;5084056;28;20460;-80
2024/03/17 04:29:59;;;;;;;0.30;0.20;;;12.70;99.90;;;;;;5084632;28;20512;-75
2024/03/17 04:32:28;;;;;;;0.30;0.30;;;12.70;99.90;;;;;;5085353;28;20263;-75
2024/03/17 04:34:54;;;;;;;0.30;0.20;;;12.70;99.90;;;;;;5085785;28;20486;-79
2024/03/17 04:37:20;;;;;;;0.30;0.20;;;12.70;99.90;;;;;;5085348;28;20623;-75
2024/03/17 04:39:46;;;;;;;0.33;0.30;;;12.70;99.90;;;;;;5085516;28;20169;-76
2024/03/17 04:42:19;;;;;;;0.30;0.20;;;12.60;99.90;;;;;;5085284;28;20221;-75
2024/03/17 04:44:45;;;;;;;0.30;0.20;;;12.60;99.90;;;;;;5085961;28;20389;-75
2024/03/17 04:47:12;;;;;;;0.30;0.20;;;12.60;99.90;;;;;;5085327;28;20814;-79
2024/03/17 04:49:38;;;;;;;0.30;0.20;;;12.60;99.90;;;;;;5084919;28;20467;-76
2024/03/17 04:52:05;;;;;;;0.30;0.30;;;12.60;99.90;;;;;;5083383;28;20966;-76
2024/03/17 04:54:32;;;;;;;0.30;0.20;;;12.50;99.90;;;;;;5085544;28;20482;-75
2024/03/17 04:56:57;;;;;;;0.30;0.20;;;12.50;99.90;;;;;;5085232;28;20776;-79
2024/03/17 04:59:24;;;;;;;0.30;0.20;;;12.50;99.90;;;;;;5085234;28;20429;-80
2024/03/17 05:01:49;;;;;;;0.30;0.20;;;12.40;99.90;;;;;;5085083;28;20172;-79
2024/03/17 05:04:15;;;;;;;0.30;0.20;;;12.40;99.90;;;;;;5085536;28;20544;-75
2024/03/17 05:06:41;;;;;;;0.40;0.40;;;12.40;99.90;;;;;;5083750;28;20607;-80
2024/03/17 05:09:12;;;;;;;0.30;0.20;;;12.30;99.90;;;;;;5083949;28;20837;-80
2024/03/17 05:11:38;;;;;;;0.30;0.20;;;12.30;99.90;;;;;;5085455;28;20441;-80
2024/03/17 05:14:05;;;;;;;0.30;0.20;;;12.20;99.90;;;;;;5083991;28;20476;-79
2024/03/17 05:16:30;;;;;;;0.30;0.20;;;12.20;99.90;;;;;;5085470;28;20780;-76
2024/03/17 05:18:56;;;;;;;0.30;0.20;;;12.10;99.90;;;;;;5085211;28;20453;-76
2024/03/17 05:21:23;;;;;;;0.30;0.20;;;12.10;99.90;;;;;;5083700;28;20184;-80
2024/03/17 05:23:49;;;;;;;0.30;0.20;;;12.10;99.90;;;;;;5085182;28;20306;-80
2024/03/17 05:26:15;;;;;;;0.30;0.20;;;12.10;99.90;;;;;;5085507;28;20521;-80
2024/03/17 05:28:40;;;;;;;0.30;0.20;;;12.10;99.90;;;;;;5085129;28;20200;-79
2024/03/17 05:31:06;;;;;;;0.30;0.20;;;12.10;99.90;;;;;;5083688;28;20723;-75
2024/03/17 05:33:32;;;;;;;0.30;0.20;;;12.10;99.90;;;;;;5084894;28;20188;-75
2024/03/17 05:35:59;;;;;;;0.30;0.20;;;12.10;99.90;;;;;;5085283;28;20256;-79
2024/03/17 05:38:30;;;;;;;0.30;0.20;;;12.10;99.90;;;;;;5085168;28;20269;-80
2024/03/17 05:41:03;;;;;;;0.30;0.20;;;12.10;99.90;;;;;;5083289;28;20417;-79
2024/03/17 05:43:32;;;;;;;0.30;0.20;;;12.10;99.90;;;;;;5083532;28;20220;-79
2024/03/17 05:45:59;;;;;;;0.30;0.20;;;12.20;99.90;;;;;;5085160;28;20421;-75
2024/03/17 05:48:25;;;;;;;0.30;0.20;;;12.20;99.90;;;;;;5084731;28;20929;-79
2024/03/17 05:50:51;;;;;;;0.30;0.20;;;12.30;99.90;;;;;;5084418;28;20479;-79
2024/03/17 05:53:18;;;;;;;0.30;0.20;;;12.30;99.90;;;;;;5084918;28;20998;-76
2024/03/17 05:55:44;;;;;;;0.30;0.20;;;12.40;99.90;;;;;;5083699;28;20212;-75
2024/03/17 05:58:11;;;;;;;0.30;0.20;;;12.40;99.90;;;;;;5084498;28;20425;-79
2024/03/17 06:00:38;;;;;;;0.30;0.20;;;12.50;99.90;;;;;;5083697;28;20421;-75
2024/03/17 06:03:05;;;;;;;1.70;1.60;;;12.50;99.90;;;;;;5083411;28;20432;-79
2024/03/17 06:05:34;;;;;;;0.30;0.20;;;12.60;99.90;;;;;;5086768;28;20429;-75
2024/03/17 06:08:05;;;;;;;0.30;0.20;;;12.60;99.90;;;;;;5088135;28;20512;-79
2024/03/17 06:10:32;;;;;;;0.30;0.20;;;12.60;99.90;;;;;;5087172;28;20487;-75
2024/03/17 06:12:58;;;;;;;0.30;0.20;;;12.70;99.90;;;;;;5086849;28;20436;-75
2024/03/17 06:15:26;;;;;;;0.30;0.30;;;12.70;99.90;;;;;;5088438;28;20412;-76
2024/03/17 06:17:53;;;;;;;0.30;0.20;;;12.70;99.90;;;;;;5086334;28;20547;-76
2024/03/17 06:20:23;;;;;;;0.30;0.20;;;12.80;99.90;;;;;;5088314;28;20437;-75
2024/03/17 06:22:49;;;;;;;0.40;0.37;;;12.80;99.90;;;;;;5086546;28;20433;-75
2024/03/17 06:25:16;;;;;;;0.30;0.20;;;12.80;99.90;;;;;;5088226;28;20436;-75
2024/03/17 06:27:42;;;;;;;0.30;0.20;;;12.80;99.90;;;;;;5087712;28;20437;-75
2024/03/17 06:30:13;;;;;;;0.30;0.20;;;12.80;99.90;;;;;;5087916;28;20784;-75
2024/03/17 06:32:41;;;;;;;0.30;0.20;;;12.90;99.90;;;;;;5086613;28;20445;-75
2024/03/17 06:35:07;;;;;;;0.40;0.40;;;12.90;99.90;;;;;;5088211;28;20732;-79
2024/03/17 06:37:33;;;;;;;0.30;0.20;;;12.90;99.90;;;;;;5086193;28;20431;-79
2024/03/17 06:39:58;;;;;;;0.30;0.20;;;12.90;99.90;;;;;;5086536;28;20428;-78
2024/03/17 06:42:24;;;;;;;0.30;0.20;;;13.00;99.90;;;;;;5086200;28;20405;-75
2024/03/17 06:44:50;;;;;;;0.30;0.20;;;13.00;99.90;;;;;;5086785;28;20185;-79
2024/03/17 06:47:16;;;;;;;0.30;0.20;;;13.00;99.90;;;;;;5087525;28;20287;-75
2024/03/17 06:49:43;;;;;;;0.30;0.30;;;13.00;99.90;;;;;;5087950;28;20555;-75
2024/03/17 06:52:09;;;;;;;0.30;0.30;;;13.10;99.90;;;;;;5087307;28;20398;-79
2024/03/17 06:54:35;;;;;;;0.70;0.67;;;13.10;99.90;;;;;;5086653;28;20401;-75
2024/03/17 06:57:01;;;;;;;0.30;0.20;;;13.20;99.90;;;;;;5086013;28;20291;-75
2024/03/17 06:59:26;;;;;;;0.30;0.20;;;13.20;99.90;;;;;;5087309;28;20516;-75
2024/03/17 07:01:52;;;;;;;0.30;0.20;;;13.20;99.90;;;;;;5086014;28;20223;-79
2024/03/17 07:04:18;;;;;;;0.30;0.20;;;13.30;99.90;;;;;;5087512;28;20567;-79
2024/03/17 07:06:44;;;;;;;0.30;0.20;;;13.40;99.90;;;;;;5087776;28;20429;-75
2024/03/17 07:09:10;;;;;;;0.30;0.20;;;13.40;99.90;;;;;;5087304;28;20567;-79
2024/03/17 07:11:36;;;;;;;0.30;0.20;;;13.50;99.90;;;;;;5085294;28;20308;-78
2024/03/17 07:14:02;;;;;;;0.30;0.30;;;13.50;99.90;;;;;;5086019;28;20497;-80
2024/03/17 07:16:28;;;;;;;0.30;0.20;;;13.50;99.90;;;;;;5084370;28;20481;-75
2024/03/17 07:18:56;;;;;;;0.30;0.20;;;13.60;99.90;;;;;;5087592;28;20495;-80
2024/03/17 07:21:22;;;;;;;0.30;0.20;;;13.60;99.90;;;;;;5087209;28;20441;-75
2024/03/17 07:23:48;;;;;;;0.30;0.20;;;13.60;99.90;;;;;;5086890;28;20505;-79
2024/03/17 07:26:14;;;;;;;0.30;0.20;;;13.70;99.90;;;;;;5085433;28;20432;-80
2024/03/17 07:28:40;;;;;;;0.50;0.50;;;13.80;99.90;;;;;;5087029;28;20413;-80
2024/03/17 07:31:09;;;;;;;0.30;0.20;;;13.90;99.90;;;;;;5085317;28;20790;-75
2024/03/17 07:33:35;;;;;;;0.30;0.20;;;13.90;99.90;;;;;;5086919;28;20429;-79
2024/03/17 07:36:00;;;;;;;0.30;0.20;;;13.90;99.90;;;;;;5085185;28;20535;-75
2024/03/17 07:38:27;;;;;;;0.30;0.20;;;14.00;99.90;;;;;;5085364;28;20520;-76
2024/03/17 07:41:01;;;;;;;0.30;0.20;;;14.00;99.90;;;;;;5084622;28;20180;-80
2024/03/17 07:43:27;;;;;;;0.30;0.20;;;14.10;99.90;;;;;;5085441;28;21151;-75
2024/03/17 07:46:00;;;;;;;0.30;0.20;;;14.20;99.90;;;;;;5084323;28;20428;-80
2024/03/17 07:48:26;;;;;;;0.30;0.20;;;14.30;99.90;;;;;;5084516;28;20774;-79
2024/03/17 07:51:08;;;;;;;0.30;0.20;;;14.40;99.90;;;;;;5085560;28;20834;-75
2024/03/17 07:53:34;;;;;;;0.30;0.20;;;14.40;99.90;;;;;;5086430;28;20482;-75
2024/03/17 07:56:05;;;;;;;0.30;0.20;;;14.50;99.90;;;;;;5086505;28;20436;-79
2024/03/17 07:58:33;;;;;;;0.30;0.20;;;14.50;99.90;;;;;;5085409;28;20421;-76
2024/03/17 08:00:59;;;;;;;0.40;0.40;;;14.60;99.90;;;;;;5083989;28;20459;-80
2024/03/17 08:03:26;;;;;;;0.47;0.47;;;14.70;99.90;;;;;;5084551;28;20560;-75
2024/03/17 08:05:52;;;;;;;0.30;0.20;;;14.80;99.90;;;;;;5083148;28;20433;-76
2024/03/17 08:08:18;;;;;;;0.30;0.20;;;14.80;99.90;;;;;;5084507;28;20464;-80
2024/03/17 08:10:44;;;;;;;0.60;0.60;;;14.90;99.90;;;;;;5083232;28;20909;-75
2024/03/17 08:13:10;;;;;;;0.30;0.20;;;15.00;99.90;;;;;;5083896;28;20468;-75
2024/03/17 08:15:36;;;;;;;0.30;0.20;;;15.10;99.90;;;;;;5085192;28;20203;-75
2024/03/17 08:18:03;;;;;;;0.30;0.20;;;15.20;99.90;;;;;;5084356;28;20244;-76
2024/03/17 08:20:29;;;;;;;0.30;0.20;;;15.20;99.90;;;;;;5084748;28;20429;-75
2024/03/17 08:22:55;;;;;;;0.30;0.20;;;15.50;99.90;;;;;;5085852;28;20596;-80
2024/03/17 08:25:21;;;;;;;0.30;0.20;;;15.90;99.90;;;;;;5085833;28;20447;-75
2024/03/17 08:27:46;;;;;;;0.30;0.20;;;16.50;99.90;;;;;;5085407;28;20192;-79
2024/03/17 08:30:13;;;;;;;0.30;0.20;;;17.20;99.90;;;;;;5085890;28;20220;-75
2024/03/17 08:32:39;;;;;;;0.30;0.20;;;17.80;99.80;;;;;;5085702;28;20445;-79
2024/03/17 08:35:06;;;;;;;0.60;0.60;;;18.60;98.50;;;;;;5085771;28;20976;-80
2024/03/17 08:37:32;;;;;;;0.37;0.20;;;19.40;97.10;;;;;;5084322;28;20429;-80
2024/03/17 08:39:57;;;;;;;0.33;0.20;;;20.20;96.20;;;;;;5084501;28;20521;-75
2024/03/17 08:42:23;;;;;;;0.30;0.20;;;20.90;94.00;;;;;;5085287;28;20413;-76
2024/03/17 08:44:49;;;;;;;0.40;0.20;;;21.30;92.30;;;;;;5085977;28;20208;-80
2024/03/17 08:47:15;;;;;;;0.30;0.20;;;21.50;91.50;;;;;;5085604;28;20257;-75
2024/03/17 08:49:41;;;;;;;0.30;0.20;;;21.80;91.30;;;;;;5086031;28;20589;-80
2024/03/17 08:52:07;;;;;;;0.40;0.40;;;22.10;90.10;;;;;;5085613;28;20225;-75
2024/03/17 08:54:32;;;;;;;0.30;0.20;;;22.40;89.20;;;;;;5084374;28;20444;-80
2024/03/17 08:56:58;;;;;;;0.30;0.20;;;22.70;89.00;;;;;;5083207;28;20425;-75
2024/03/17 08:59:24;;;;;;;0.40;0.30;;;22.90;87.50;;;;;;5084237;28;20226;-75
2024/03/17 09:01:49;;;;;;;0.30;0.20;;;22.80;85.30;;;;;;5083007;28;20288;-75
2024/03/17 09:04:15;;;;;;;0.30;0.20;;;22.80;83.80;;;;;;5083849;28;20348;-75
2024/03/17 09:06:41;;;;;;;0.30;0.20;;;22.60;83.60;;;;;;5085588;28;20206;-81
2024/03/17 09:09:07;;;;;;;0.40;0.30;;;22.40;84.10;;;;;;5084031;28;20219;-75
2024/03/17 09:11:33;;;;;;;0.30;0.20;;;22.20;83.10;;;;;;5085058;28;20239;-75
2024/03/17 09:13:59;;;;;;;0.30;0.30;;;21.90;84.10;;;;;;5085487;28;20917;-75
2024/03/17 09:16:25;;;;;;;0.30;0.20;;;21.70;83.40;;;;;;5083053;28;20184;-80
2024/03/17 09:18:51;;;;;;;0.40;0.33;;;21.40;83.20;;;;;;5083800;28;20301;-75
2024/03/17 09:21:17;;;;;;;0.30;0.20;;;21.30;84.10;;;;;;5083612;28;20438;-75
2024/03/17 09:23:43;;;;;;;0.30;0.20;;;21.30;84.50;;;;;;5082044;28;20445;-74
2024/03/17 09:26:16;;;;;;;0.30;0.20;;;21.30;82.70;;;;;;5083695;28;20840;-75
2024/03/17 09:28:42;;;;;;;0.30;0.20;;;21.10;81.20;;;;;;5083635;28;20478;-75
2024/03/17 09:31:07;;;;;;;0.30;0.20;;;21.00;80.40;;;;;;5082667;28;20987;-75
2024/03/17 09:33:35;;;;;;;0.40;0.40;;;21.10;83.40;;;;;;5083348;28;20433;-75
2024/03/17 09:36:03;;;;;;;0.30;0.20;;;21.50;81.60;;;;;;5083950;28;20180;-80
2024/03/17 09:38:29;;;;;;;0.40;0.40;;;21.90;80.00;;;;;;5083537;28;20434;-80
2024/03/17 09:41:00;;;;;;;0.40;0.30;;;21.90;80.30;;;;;;5085545;28;20959;-75
2024/03/17 09:43:27;;;;;;;0.40;0.20;;;22.30;79.40;;;;;;5088284;28;21007;-75
2024/03/17 09:46:00;;;;;;;0.30;0.20;;;22.50;78.90;;;;;;5089032;28;20447;-80
2024/03/17 09:48:30;;;;;;;0.30;0.20;;;22.90;79.60;;;;;;5089013;28;20425;-75
2024/03/17 09:51:23;;;;;;;0.40;0.20;;;23.10;79.20;;;;;;5065353;28;20440;-75
2024/03/17 09:53:49;;;;;;;0.30;0.20;;;23.40;76.50;;;;;;5048622;28;20497;-75
2024/03/17 09:56:18;;;;;;;0.30;0.20;;;23.30;75.30;;;;;;5064959;28;21011;-75
2024/03/17 09:58:44;;;;;;;0.30;0.20;;;23.10;75.30;;;;;;5065291;28;20436;-75
2024/03/17 10:01:11;;;;;;;0.30;0.20;;;22.80;75.20;;;;;;5047766;28;20433;-75
2024/03/17 10:03:51;;;;;;;0.30;0.20;;;22.60;75.40;;;;;;5065307;28;20439;-75
2024/03/17 10:06:21;;;;;;;0.30;0.30;;;22.40;75.90;;;;;;5065003;28;20471;-75
2024/03/17 10:08:50;;;;;;;0.30;0.20;;;22.30;76.30;;;;;;5048244;28;20669;-80
2024/03/17 10:11:24;;;;;;;0.30;0.20;;;22.30;78.00;;;;;;5048175;28;20978;-80
2024/03/17 10:14:00;;;;;;;0.30;0.20;;;22.50;78.40;;;;;;5065202;28;20494;-80
2024/03/17 10:16:29;;;;;;;0.30;0.20;;;22.50;76.20;;;;;;5063541;28;20513;-80
2024/03/17 10:19:24;;;;;;;0.30;0.20;;;22.30;74.50;;;;;;5046989;28;20480;-80
2024/03/17 10:21:57;;;;;;;0.30;0.20;;;21.80;75.60;;;;;;5068920;28;20930;-74
2024/03/17 10:24:25;;;;;;;0.30;0.20;;;21.40;76.90;;;;;;5086250;28;20414;-74
2024/03/17 10:26:53;;;;;;;0.30;0.20;;;21.10;77.80;;;;;;5084988;28;20423;-79
2024/03/17 10:29:30;;;;;;;0.30;0.20;;;20.70;77.60;;;;;;5086637;28;20873;-74
2024/03/17 10:32:14;;;;;;;0.30;0.20;;;20.40;76.00;;;;;;5086484;28;20425;-74
2024/03/17 10:34:39;;;;;;;0.30;0.20;;;20.10;77.00;;;;;;5086710;28;20421;-74
2024/03/17 10:37:10;;;;;;;0.30;0.20;;;19.70;77.30;;;;;;5086793;28;20440;-75
2024/03/17 10:39:37;;;;;;;0.30;0.20;;;19.50;75.40;;;;;;5086498;28;20258;-74
2024/03/17 10:42:05;;;;;;;0.37;0.30;;;19.20;76.70;;;;;;5084685;28;20420;-75
2024/03/17 10:44:34;;;;;;;0.40;0.30;;;19.10;78.60;;;;;;5084972;28;20564;-74
2024/03/17 10:47:01;;;;;;;0.30;0.20;;;19.10;78.30;;;;;;5087785;28;21099;-74
2024/03/17 10:49:32;;;;;;;0.30;0.20;;;19.10;78.70;;;;;;5087505;28;20468;-78
2024/03/17 10:52:07;;;;;;;0.47;0.47;;;19.10;80.00;;;;;;5087357;28;20500;-74
2024/03/17 10:54:33;;;;;;;0.30;0.20;;;19.10;79.40;;;;;;5087811;28;20962;-79
2024/03/17 10:57:33;;;;;;;0.30;0.20;;;19.10;78.50;;;;;;5087296;28;20855;-78
2024/03/17 11:00:02;;;;;;;0.30;0.20;;;19.10;79.80;;;;;;5086696;28;20706;-80
2024/03/17 11:02:32;;;;;;;0.40;0.40;;;19.00;78.60;;;;;;5085617;28;20444;-80
2024/03/17 11:05:00;;;;;;;0.30;0.20;;;19.00;79.00;;;;;;5087463;28;20934;-79
2024/03/17 11:07:27;;;;;;;0.30;0.20;;;18.90;80.00;;;;;;5087323;28;21058;-74
2024/03/17 11:09:55;;;;;;;1.07;1.07;;;18.90;80.10;;;;;;5087356;28;20479;-79
2024/03/17 11:12:44;;;;;;;0.30;0.20;;;18.80;80.30;;;;;;5086916;28;20517;-74
2024/03/17 11:15:19;;;;;;;0.30;0.20;;;18.60;79.40;;;;;;5086055;28;20436;-74
2024/03/17 11:17:52;;;;;;;0.50;0.50;;;18.50;80.00;;;;;;5085571;28;20482;-74
2024/03/17 11:20:23;;;;;;;0.30;0.20;;;18.50;82.30;;;;;;5085867;28;21002;-75
2024/03/17 11:22:59;;;;;;;0.30;0.20;;;18.60;79.50;;;;;;5086924;28;20446;-75
2024/03/17 11:25:30;;;;;;;0.50;0.50;;;18.70;75.90;;;;;;5087045;28;20791;-79
2024/03/17 11:27:56;;;;;;;0.30;0.20;;;18.80;75.00;;;;;;5086883;28;20761;-75
2024/03/17 11:30:40;;;;;;;0.30;0.20;;;18.90;75.90;;;;;;5086860;28;20499;-79
2024/03/17 11:33:37;;;;;;;0.30;0.20;;;19.00;74.00;;;;;;5085579;28;20661;-79
2024/03/17 11:36:24;;;;;;;0.30;0.20;;;19.00;76.50;;;;;;5086883;28;20429;-79
2024/03/17 11:41:46;;;;;;;0.30;0.20;;;19.10;74.30;;;;;;5087227;28;20508;-79
2024/03/17 11:44:21;;;;;;;0.30;0.20;;;19.20;75.20;;;;;;5086907;28;20428;-75
2024/03/17 11:46:50;;;;;;;0.30;0.20;;;19.20;76.80;;;;;;5085512;28;20428;-75
2024/03/17 11:49:30;;;;;;;0.30;0.20;;;19.10;74.90;;;;;;5086750;28;20444;-79
2024/03/17 11:52:02;;;;;;;0.30;0.20;;;19.20;76.30;;;;;;5086377;28;20413;-79
2024/03/17 11:54:34;;;;;;;0.30;0.20;;;19.10;76.90;;;;;;5085078;28;20658;-75
2024/03/17 11:57:05;;;;;;;0.30;0.20;;;19.10;75.80;;;;;;5084922;28;20559;-79
2024/03/17 11:59:31;;;;;;;0.30;0.20;;;19.10;75.00;;;;;;5085016;28;20459;-75
2024/03/17 12:01:57;;;;;;;0.30;0.20;;;19.10;75.60;;;;;;5085205;28;20397;-79
2024/03/17 12:04:24;;;;;;;0.30;0.20;;;19.00;74.60;;;;;;5085646;28;20824;-75
2024/03/17 12:06:58;;;;;;;0.30;0.20;;;19.00;73.70;;;;;;5086340;28;20619;-79
2024/03/17 12:09:26;;;;;;;0.30;0.20;;;19.00;73.90;;;;;;5086082;28;20512;-79
2024/03/17 12:11:59;;;;;;;0.30;0.20;;;18.90;73.50;;;;;;5085864;28;20432;-75
2024/03/17 12:14:28;;;;;;;0.30;0.20;;;18.90;74.40;;;;;;5084925;28;20441;-79
2024/03/17 12:16:59;;;;;;;0.30;0.20;;;18.90;73.90;;;;;;5085964;28;20404;-79
2024/03/17 12:19:26;;;;;;;0.30;0.20;;;18.90;74.60;;;;;;5086029;28;20424;-79
2024/03/17 12:21:55;;;;;;;0.30;0.20;;;18.90;75.10;;;;;;5086049;28;20572;-79
2024/03/17 12:24:26;;;;;;;0.30;0.20;;;19.00;74.50;;;;;;5084302;28;20665;-75
2024/03/17 12:26:56;;;;;;;0.30;0.20;;;18.90;75.00;;;;;;5084613;28;20528;-75
2024/03/17 12:29:40;;;;;;;0.30;0.20;;;18.90;75.40;;;;;;5085676;28;20456;-80
2024/03/17 12:32:23;;;;;;;0.30;0.20;;;19.00;75.50;;;;;;5084251;28;20456;-79
2024/03/17 12:34:59;;;;;;;0.30;0.20;;;18.90;74.10;;;;;;5086070;28;20428;-75
2024/03/17 12:37:33;;;;;;;0.30;0.20;;;18.90;74.20;;;;;;5085520;28;20490;-79
2024/03/17 12:39:59;;;;;;;0.30;0.20;;;18.80;74.50;;;;;;5084834;28;20447;-79
2024/03/17 12:42:27;;;;;;;0.30;0.20;;;18.60;74.30;;;;;;5085593;28;20412;-75
2024/03/17 12:44:57;;;;;;;0.30;0.20;;;18.50;74.60;;;;;;5085591;28;20413;-75
2024/03/17 12:47:25;;;;;;;0.30;0.20;;;18.30;74.40;;;;;;5084197;28;20424;-79
2024/03/17 12:49:53;;;;;;;0.30;0.20;;;18.20;75.60;;;;;;5084339;28;20841;-75
2024/03/17 12:52:23;;;;;;;0.30;0.20;;;18.20;76.00;;;;;;5085219;28;20401;-79
2024/03/17 13:01:02;;;;;;;0.30;0.20;;;18.00;73.90;;;;;;5085775;28;20468;-75
2024/03/17 13:03:31;;;;;;;0.30;0.20;;;18.00;73.60;;;;;;5084998;28;20420;-75